createdAt,value
2022-07-30T00:01:42.445Z,23.67
2022-07-30T00:04:10.057Z,20.88
2022-07-30T00:06:39.894Z,24.77
2022-07-30T00:09:07.542Z,27.08
2022-07-30T00:11:35.117Z,26.48
2022-07-30T00:14:02.685Z,29.00
2022-07-30T00:16:30.207Z,27.50
2022-07-30T00:18:57.787Z,28.35
2022-07-30T00:21:36.260Z,24.50
2022-07-30T00:24:08.669Z,34.43
2022-07-30T00:26:36.443Z,35.95
2022-07-30T00:29:04.866Z,30.65
2022-07-30T00:31:32.648Z,28.67
2022-07-30T00:34:00.165Z,28.50
2022-07-30T00:36:28.291Z,29.13
2022-07-30T00:38:56.025Z,30.83
2022-07-30T00:41:23.814Z,31.70
2022-07-30T00:43:51.729Z,30.98
2022-07-30T00:46:19.733Z,27.50
2022-07-30T00:48:47.498Z,32.15
2022-07-30T00:51:15.048Z,28.40
2022-07-30T00:53:42.506Z,26.38
2022-07-30T00:56:10.021Z,27.10
2022-07-30T00:58:37.545Z,30.30
2022-07-30T01:01:05.121Z,34.47
2022-07-30T01:03:32.656Z,35.35
2022-07-30T01:06:00.163Z,34.33
2022-07-30T01:08:27.638Z,30.55
2022-07-30T01:10:55.160Z,36.10
2022-07-30T01:13:23.799Z,35.47
2022-07-30T01:15:51.485Z,36.05
2022-07-30T01:18:19.031Z,37.35
2022-07-30T01:21:05.276Z,32.92
2022-07-30T01:23:39.185Z,36.25
2022-07-30T01:26:19.655Z,32.92
2022-07-30T01:28:52.074Z,33.20
2022-07-30T01:31:21.915Z,34.45
2022-07-30T01:33:50.971Z,34.30
2022-07-30T01:36:22.258Z,36.55
2022-07-30T01:38:51.474Z,39.17
2022-07-30T01:41:19.988Z,33.83
2022-07-30T01:43:47.591Z,32.22
2022-07-30T01:46:17.347Z,34.08
2022-07-30T01:48:48.301Z,43.53
2022-07-30T01:51:17.588Z,35.28
2022-07-30T01:53:51.114Z,33.47
2022-07-30T01:56:24.502Z,37.97
2022-07-30T01:58:55.767Z,38.08
2022-07-30T02:01:26.370Z,38.90
2022-07-30T02:04:02.386Z,41.15
2022-07-30T02:06:39.358Z,44.03
2022-07-30T02:09:10.788Z,38.38
2022-07-30T02:12:04.041Z,43.58
2022-07-30T02:14:41.479Z,47.15
2022-07-30T02:17:19.112Z,49.50
2022-07-30T02:19:53.205Z,51.38
2022-07-30T02:22:23.917Z,49.40
2022-07-30T02:24:52.654Z,50.17
2022-07-30T02:27:29.272Z,49.20
2022-07-30T02:30:00.500Z,48.00
2022-07-30T02:32:33.116Z,51.15
2022-07-30T02:35:10.427Z,52.42
2022-07-30T02:37:43.855Z,54.05
2022-07-30T02:40:18.099Z,58.45
2022-07-30T02:42:49.254Z,53.88
2022-07-30T02:45:21.241Z,56.55
2022-07-30T02:47:53.507Z,57.67
2022-07-30T02:50:24.556Z,52.78
2022-07-30T02:52:53.622Z,59.33
2022-07-30T02:55:24.048Z,61.22
2022-07-30T02:57:53.686Z,67.70
2022-07-30T03:00:23.645Z,64.72
2022-07-30T03:02:56.628Z,59.47
2022-07-30T03:05:26.680Z,60.22
2022-07-30T03:07:57.864Z,56.33
2022-07-30T03:10:27.211Z,63.03
2022-07-30T03:12:56.259Z,67.03
2022-07-30T03:15:24.461Z,64.50
2022-07-30T03:17:54.152Z,67.93
2022-07-30T03:20:29.165Z,67.63
2022-07-30T03:22:59.783Z,65.15
2022-07-30T03:25:31.162Z,67.80
2022-07-30T03:28:02.386Z,71.70
2022-07-30T03:30:30.871Z,59.78
2022-07-30T03:32:58.882Z,61.50
2022-07-30T03:35:27.359Z,59.20
2022-07-30T03:38:00.464Z,62.58
2022-07-30T03:40:28.963Z,59.67
2022-07-30T03:42:56.812Z,61.13
2022-07-30T03:45:26.527Z,61.08
2022-07-30T03:48:00.174Z,58.53
2022-07-30T03:50:29.727Z,64.45
2022-07-30T03:52:57.703Z,59.20
2022-07-30T03:55:25.645Z,60.85
2022-07-30T03:58:11.907Z,61.33
2022-07-30T04:00:40.896Z,60.90
2022-07-30T04:03:09.128Z,63.05
2022-07-30T04:05:50.190Z,61.13
2022-07-30T04:08:17.655Z,56.20
2022-07-30T04:10:48.482Z,61.58
2022-07-30T04:13:34.633Z,59.78
2022-07-30T04:16:40.170Z,53.35
2022-07-30T04:19:15.415Z,58.97
2022-07-30T04:21:46.537Z,56.05
2022-07-30T04:24:15.962Z,55.80
2022-07-30T04:26:46.264Z,54.92
2022-07-30T04:29:19.186Z,62.03
2022-07-30T04:31:51.341Z,51.83
2022-07-30T04:34:33.989Z,53.78
2022-07-30T04:37:02.240Z,52.65
2022-07-30T04:39:30.232Z,50.53
2022-07-30T04:41:57.895Z,49.92
2022-07-30T04:44:36.338Z,53.75
2022-07-30T04:47:24.679Z,53.15
2022-07-30T04:50:13.381Z,53.97
2022-07-30T04:52:43.133Z,52.17
2022-07-30T04:55:16.225Z,49.28
2022-07-30T04:57:50.554Z,65.72
2022-07-30T05:00:18.389Z,63.88
2022-07-30T05:02:49.180Z,81.70
2022-07-30T05:05:18.756Z,68.32
2022-07-30T05:07:47.097Z,71.30
2022-07-30T05:10:15.428Z,67.03
2022-07-30T05:12:43.705Z,66.35
2022-07-30T05:15:11.989Z,71.97
2022-07-30T05:17:39.575Z,75.85
2022-07-30T05:20:10.433Z,69.13
2022-07-30T05:23:00.743Z,79.05
2022-07-30T05:25:28.630Z,78.72
2022-07-30T05:28:06.026Z,72.20
2022-07-30T05:30:33.575Z,74.95
2022-07-30T05:33:03.623Z,73.50
2022-07-30T05:35:36.083Z,73.45
2022-07-30T05:38:03.940Z,73.05
2022-07-30T05:40:42.012Z,76.13
2022-07-30T05:43:32.280Z,70.45
2022-07-30T05:46:00.087Z,77.05
2022-07-30T05:48:28.122Z,77.45
2022-07-30T05:50:55.592Z,73.20
2022-07-30T05:53:23.894Z,74.05
2022-07-30T05:56:10.062Z,69.50
2022-07-30T05:58:51.624Z,70.82
2022-07-30T06:01:29.367Z,66.93
2022-07-30T06:04:00.336Z,73.28
2022-07-30T06:06:48.885Z,63.25
2022-07-30T06:09:16.842Z,60.15
2022-07-30T06:11:50.216Z,60.97
2022-07-30T06:14:18.711Z,61.20
2022-07-30T06:16:46.367Z,52.78
2022-07-30T06:19:19.667Z,49.10
2022-07-30T06:22:02.040Z,57.17
2022-07-30T06:24:37.434Z,47.22
2022-07-30T06:27:10.876Z,48.75
2022-07-30T06:29:39.959Z,46.03
2022-07-30T06:32:07.469Z,44.63
2022-07-30T06:34:35.171Z,46.10
2022-07-30T06:37:03.053Z,42.35
2022-07-30T06:39:58.059Z,42.13
2022-07-30T06:42:21.644Z,35.97
2022-07-30T06:45:08.221Z,38.05
2022-07-30T06:48:07.917Z,34.40
2022-07-30T06:50:36.082Z,36.10
2022-07-30T06:53:04.360Z,35.60
2022-07-30T06:55:53.045Z,29.23
2022-07-30T06:58:29.248Z,31.05
2022-07-30T07:01:13.261Z,28.10
2022-07-30T07:03:40.970Z,28.65
2022-07-30T07:06:09.155Z,23.30
2022-07-30T07:08:38.394Z,28.60
2022-07-30T07:11:07.551Z,22.85
2022-07-30T07:13:44.707Z,19.33
2022-07-30T07:16:21.905Z,18.63
2022-07-30T07:18:52.368Z,19.23
2022-07-30T07:21:21.323Z,17.92
2022-07-30T07:23:49.180Z,18.17
2022-07-30T07:26:48.728Z,20.00
2022-07-30T07:29:16.801Z,19.52
2022-07-30T07:32:07.155Z,18.15
2022-07-30T07:34:33.126Z,16.35
2022-07-30T07:37:01.271Z,12.20
2022-07-30T07:39:28.922Z,6.65
2022-07-30T07:41:56.560Z,6.88
2022-07-30T07:44:26.181Z,7.60
2022-07-30T07:46:53.683Z,9.57
2022-07-30T07:49:22.968Z,7.85
2022-07-30T07:51:52.337Z,10.10
2022-07-30T07:54:22.935Z,14.18
2022-07-30T07:56:52.792Z,8.70
2022-07-30T07:59:23.048Z,9.82
2022-07-30T08:01:55.152Z,10.23
2022-07-30T08:04:22.590Z,9.05
2022-07-30T08:07:25.184Z,10.80
2022-07-30T08:10:14.002Z,11.43
2022-07-30T08:13:00.184Z,10.40
2022-07-30T08:15:45.980Z,10.50
2022-07-30T08:18:38.017Z,11.52
2022-07-30T08:21:16.485Z,13.77
2022-07-30T08:23:44.000Z,10.15
2022-07-30T08:26:12.313Z,20.75
2022-07-30T08:28:40.054Z,12.57
2022-07-30T08:31:08.748Z,9.88
2022-07-30T08:33:36.232Z,13.05
2022-07-30T08:36:09.597Z,16.85
2022-07-30T08:38:38.887Z,10.63
2022-07-30T08:41:07.679Z,13.52
2022-07-30T08:43:37.551Z,13.00
2022-07-30T08:46:11.110Z,12.57
2022-07-30T08:51:18.191Z,17.83
2022-07-30T08:54:04.948Z,13.77
2022-07-30T08:56:34.638Z,15.45
2022-07-30T08:59:02.777Z,12.55
2022-07-30T09:01:30.349Z,17.98
2022-07-30T09:03:58.040Z,18.83
2022-07-30T09:06:28.103Z,19.10
2022-07-30T09:08:55.770Z,16.27
2022-07-30T09:11:23.316Z,16.90
2022-07-30T09:13:51.656Z,23.50
2022-07-30T09:16:24.147Z,23.33
2022-07-30T09:18:54.733Z,24.45
2022-07-30T09:21:29.149Z,20.95
2022-07-30T09:24:20.003Z,22.65
2022-07-30T09:27:02.280Z,20.10
2022-07-30T09:29:58.286Z,26.48
2022-07-30T09:32:55.799Z,17.33
2022-07-30T09:35:43.515Z,19.05
2022-07-30T09:38:12.481Z,24.10
2022-07-30T09:41:00.147Z,32.05
2022-07-30T09:43:52.810Z,26.30
2022-07-30T09:46:42.520Z,25.92
2022-07-30T09:49:16.375Z,25.77
2022-07-30T09:54:52.850Z,22.73
2022-07-30T09:57:27.513Z,23.73
2022-07-30T10:00:25.839Z,25.33
2022-07-30T10:03:33.145Z,29.45
2022-07-30T10:06:37.835Z,30.00
2022-07-30T10:09:37.266Z,28.85
2022-07-30T10:12:11.242Z,24.70
2022-07-30T10:14:45.723Z,22.27
2022-07-30T10:17:17.435Z,22.40
2022-07-30T10:20:08.892Z,24.63
2022-07-30T10:22:55.724Z,31.80
2022-07-30T10:25:35.321Z,22.83
2022-07-30T10:28:38.763Z,21.50
2022-07-30T10:31:08.450Z,23.58
2022-07-30T10:33:55.470Z,22.92
2022-07-30T10:36:24.607Z,30.75
2022-07-30T10:38:54.226Z,19.90
2022-07-30T10:41:54.105Z,25.90
2022-07-30T10:44:43.642Z,26.55
2022-07-30T10:47:14.425Z,31.70
2022-07-30T10:49:43.318Z,24.10
2022-07-30T10:52:12.245Z,23.10
2022-07-30T10:54:47.501Z,22.58
2022-07-30T10:57:32.398Z,24.77
2022-07-30T11:00:01.055Z,26.05
2022-07-30T11:02:35.747Z,21.83
2022-07-30T11:05:44.097Z,20.38
2022-07-30T11:08:36.861Z,22.73
2022-07-30T11:11:19.209Z,21.48
2022-07-30T11:13:59.130Z,29.38
2022-07-30T11:16:33.276Z,24.30
2022-07-30T11:19:54.938Z,24.88
2022-07-30T11:22:38.905Z,19.42
2022-07-30T11:25:51.352Z,19.08
2022-07-30T11:28:40.495Z,22.10
2022-07-30T11:31:56.859Z,18.85
2022-07-30T11:34:28.647Z,16.80
2022-07-30T11:37:18.965Z,13.30
2022-07-30T11:40:10.607Z,18.35
2022-07-30T11:42:40.896Z,26.13
2022-07-30T11:45:29.434Z,20.20
2022-07-30T11:47:58.413Z,20.88
2022-07-30T11:50:28.192Z,18.70
2022-07-30T11:53:03.061Z,20.90
2022-07-30T11:55:35.755Z,19.25
2022-07-30T11:58:06.925Z,22.33
2022-07-30T12:03:13.828Z,23.35
2022-07-30T12:05:42.155Z,22.23
2022-07-30T12:08:33.337Z,17.38
2022-07-30T12:11:00.883Z,15.50
2022-07-30T12:13:45.237Z,14.88
2022-07-30T12:16:17.618Z,18.02
2022-07-30T12:18:47.123Z,17.05
2022-07-30T12:21:18.886Z,15.60
2022-07-30T12:24:04.295Z,14.82
2022-07-30T12:26:34.380Z,11.98
2022-07-30T12:29:13.659Z,13.10
2022-07-30T12:31:41.822Z,12.65
2022-07-30T12:34:23.107Z,16.33
2022-07-30T12:36:50.759Z,10.35
2022-07-30T12:39:27.405Z,12.63
2022-07-30T12:41:58.848Z,11.48
2022-07-30T12:44:38.689Z,12.07
2022-07-30T12:47:19.392Z,11.88
2022-07-30T12:49:49.563Z,11.68
2022-07-30T12:52:28.699Z,12.18
2022-07-30T12:55:08.719Z,10.63
2022-07-30T12:58:10.555Z,8.30
2022-07-30T13:00:44.177Z,8.40
2022-07-30T13:03:23.131Z,10.20
2022-07-30T13:05:55.714Z,10.88
2022-07-30T13:08:56.790Z,9.52
2022-07-30T13:11:26.577Z,7.72
2022-07-30T13:13:54.353Z,7.93
2022-07-30T13:16:21.946Z,8.32
2022-07-30T13:18:49.594Z,4.93
2022-07-30T13:21:17.131Z,3.95
2022-07-30T13:23:44.701Z,6.20
2022-07-30T13:26:12.366Z,7.15
2022-07-30T13:28:40.668Z,6.05
2022-07-30T13:31:08.732Z,6.40
2022-07-30T13:33:37.094Z,3.80
2022-07-30T13:36:05.549Z,8.32
2022-07-30T13:38:33.582Z,4.65
2022-07-30T13:41:02.872Z,7.75
2022-07-30T13:43:33.518Z,11.63
2022-07-30T13:48:31.430Z,2.60
2022-07-30T13:51:01.267Z,4.97
2022-07-30T13:53:30.309Z,6.00
2022-07-30T13:55:59.525Z,10.65
2022-07-30T13:58:27.835Z,4.30
2022-07-30T14:00:55.411Z,4.97
2022-07-30T14:03:22.847Z,8.10
2022-07-30T14:05:50.332Z,2.03
2022-07-30T14:08:17.872Z,1.50
2022-07-30T14:10:45.350Z,2.35
2022-07-30T14:13:19.148Z,1.52
2022-07-30T14:15:48.642Z,7.43
2022-07-30T14:18:16.836Z,2.67
2022-07-30T14:20:48.421Z,2.65
2022-07-30T14:23:17.225Z,7.40
2022-07-30T14:25:45.034Z,1.33
2022-07-30T14:28:13.004Z,8.10
2022-07-30T14:30:40.491Z,5.85
2022-07-30T14:33:08.314Z,5.53
2022-07-30T14:35:36.004Z,1.67
2022-07-30T14:38:03.622Z,7.43
2022-07-30T14:40:31.239Z,8.57
2022-07-30T14:42:59.461Z,1.02
2022-07-30T14:45:27.047Z,1.40
2022-07-30T14:47:56.433Z,4.85
2022-07-30T14:50:23.912Z,9.55
2022-07-30T14:52:52.086Z,3.90
2022-07-30T14:55:19.687Z,3.75
2022-07-30T14:57:47.616Z,2.70
2022-07-30T15:00:15.528Z,12.20
2022-07-30T15:02:43.061Z,5.45
2022-07-30T15:05:10.569Z,11.80
2022-07-30T15:07:38.076Z,4.60
2022-07-30T15:10:07.361Z,8.20
2022-07-30T15:12:35.002Z,2.22
2022-07-30T15:15:07.708Z,1.85
2022-07-30T15:17:38.811Z,4.03
2022-07-30T15:20:09.123Z,4.38
2022-07-30T15:22:36.996Z,5.35
2022-07-30T15:25:05.538Z,1.00
2022-07-30T15:27:34.226Z,2.60
2022-07-30T15:30:02.575Z,2.05
2022-07-30T15:32:30.238Z,2.20
2022-07-30T15:34:58.805Z,1.15
2022-07-30T15:37:26.653Z,1.30
2022-07-30T15:39:54.097Z,2.85
2022-07-30T15:42:21.611Z,1.70
2022-07-30T15:45:14.281Z,1.23
2022-07-30T15:47:37.374Z,0.70
2022-07-30T15:50:05.597Z,1.20
2022-07-30T15:52:34.459Z,0.68
2022-07-30T15:55:04.317Z,3.80
2022-07-30T15:57:32.001Z,1.42
2022-07-30T15:59:59.824Z,1.80
2022-07-30T16:02:27.373Z,1.00
2022-07-30T16:04:54.966Z,1.02
2022-07-30T16:07:22.452Z,0.52
2022-07-30T16:09:49.939Z,3.42
2022-07-30T16:12:17.406Z,3.63
2022-07-30T16:14:44.930Z,0.90
2022-07-30T16:17:14.252Z,2.35
2022-07-30T16:19:44.772Z,2.63
2022-07-30T16:22:14.950Z,1.77
2022-07-30T16:24:50.049Z,1.90
2022-07-30T16:27:17.775Z,2.47
2022-07-30T16:29:45.233Z,0.40
2022-07-30T16:32:12.736Z,0.95
2022-07-30T16:34:40.165Z,1.05
2022-07-30T16:37:07.598Z,1.25
2022-07-30T16:39:35.113Z,2.75
2022-07-30T16:42:04.531Z,1.95
2022-07-30T16:44:34.128Z,3.25
2022-07-30T16:47:01.661Z,3.42
2022-07-30T16:49:30.328Z,2.38
2022-07-30T16:51:57.831Z,0.35
2022-07-30T16:54:25.395Z,0.55
2022-07-30T16:56:52.940Z,2.42
2022-07-30T16:59:20.676Z,0.77
2022-07-30T17:01:48.906Z,1.27
2022-07-30T17:04:16.431Z,1.48
2022-07-30T17:06:44.436Z,3.58
2022-07-30T17:09:15.781Z,2.17
2022-07-30T17:11:47.573Z,1.05
2022-07-30T17:14:22.296Z,2.15
2022-07-30T17:16:49.891Z,1.50
2022-07-30T17:19:17.419Z,2.58
2022-07-30T17:21:44.883Z,2.88
2022-07-30T17:24:13.637Z,1.90
2022-07-30T17:26:46.703Z,0.93
2022-07-30T17:29:15.898Z,2.25
2022-07-30T17:31:44.703Z,2.38
2022-07-30T17:34:14.430Z,2.53
2022-07-30T17:40:04.097Z,2.55
2022-07-30T17:42:11.329Z,3.55
2022-07-30T17:44:41.448Z,1.27
2022-07-30T17:47:15.199Z,13.40
2022-07-30T17:49:44.347Z,0.52
2022-07-30T17:52:11.925Z,0.40
2022-07-30T17:54:39.583Z,1.35
2022-07-30T17:57:07.529Z,3.53
2022-07-30T17:59:34.984Z,1.00
2022-07-30T18:02:04.310Z,3.03
2022-07-30T18:04:32.505Z,0.95
2022-07-30T18:07:00.430Z,1.13
2022-07-30T18:09:27.969Z,6.20
2022-07-30T18:11:55.634Z,4.07
2022-07-30T18:14:24.091Z,3.20
2022-07-30T18:16:52.255Z,3.83
2022-07-30T18:19:22.528Z,1.50
2022-07-30T18:22:02.185Z,9.10
2022-07-30T18:24:30.653Z,1.83
2022-07-30T18:26:58.083Z,4.28
2022-07-30T18:29:25.507Z,1.85
2022-07-30T18:31:53.029Z,4.20
2022-07-30T18:34:20.463Z,4.13
2022-07-30T18:36:51.147Z,4.05
2022-07-30T18:41:46.052Z,2.47
2022-07-30T18:44:13.583Z,2.28
2022-07-30T18:46:41.052Z,3.08
2022-07-30T18:49:33.848Z,9.43
2022-07-30T18:51:56.992Z,2.63
2022-07-30T18:54:24.430Z,3.50
2022-07-30T18:56:51.854Z,5.53
2022-07-30T18:59:19.381Z,4.15
2022-07-30T19:01:46.811Z,8.77
2022-07-30T19:04:14.351Z,5.00
2022-07-30T19:06:41.817Z,10.50
2022-07-30T19:09:13.028Z,4.90
2022-07-30T19:11:46.072Z,2.50
2022-07-30T19:14:14.613Z,6.10
2022-07-30T19:16:43.383Z,3.40
2022-07-30T19:19:13.649Z,4.25
2022-07-30T19:21:41.581Z,13.60
2022-07-30T19:24:10.001Z,16.92
2022-07-30T19:26:39.729Z,12.65
2022-07-30T19:29:08.031Z,14.63
2022-07-30T19:31:36.007Z,20.77
2022-07-30T19:34:04.364Z,23.65
2022-07-30T19:36:31.922Z,19.63
2022-07-30T19:39:00.715Z,20.85
2022-07-30T19:41:46.890Z,23.63
2022-07-30T19:44:19.055Z,11.02
2022-07-30T19:46:48.720Z,10.15
2022-07-30T19:49:19.564Z,9.73
2022-07-30T19:54:34.622Z,9.95
2022-07-30T19:57:04.613Z,17.63
2022-07-30T19:59:45.420Z,13.27
2022-07-30T20:02:19.615Z,10.57
2022-07-30T20:04:50.101Z,23.15
2022-07-30T20:07:17.744Z,15.95
2022-07-30T20:09:45.242Z,12.32
2022-07-30T20:14:44.854Z,14.23
2022-07-30T20:17:12.383Z,12.38
2022-07-30T20:19:47.605Z,16.13
2022-07-30T20:22:16.978Z,12.15
2022-07-30T20:24:45.371Z,13.65
2022-07-30T20:27:36.613Z,8.57
2022-07-30T20:30:01.409Z,5.55
2022-07-30T20:32:29.301Z,11.57
2022-07-30T20:34:57.238Z,13.40
2022-07-30T20:37:27.432Z,9.63
2022-07-30T20:39:55.753Z,6.10
2022-07-30T20:42:24.639Z,7.10
2022-07-30T20:44:57.044Z,9.40
2022-07-30T20:47:34.389Z,7.68
2022-07-30T20:50:14.354Z,6.95
2022-07-30T20:52:44.922Z,7.72
2022-07-30T20:55:19.157Z,11.32
2022-07-30T20:57:57.285Z,9.57
2022-07-30T21:00:36.881Z,8.45
2022-07-30T21:03:05.492Z,5.80
2022-07-30T21:05:35.510Z,3.50
2022-07-30T21:08:03.236Z,11.87
2022-07-30T21:10:30.760Z,6.75
2022-07-30T21:13:03.021Z,3.38
2022-07-30T21:15:32.962Z,4.35
2022-07-30T21:18:01.816Z,7.88
2022-07-30T21:20:32.609Z,9.63
2022-07-30T21:23:10.294Z,5.53
2022-07-30T21:26:01.589Z,4.93
2022-07-30T21:28:28.550Z,11.45
2022-07-30T21:30:57.220Z,5.07
2022-07-30T21:33:27.024Z,6.55
2022-07-30T21:35:59.592Z,5.75
2022-07-30T21:38:27.708Z,11.65
2022-07-30T21:40:56.119Z,13.02
2022-07-30T21:43:30.011Z,3.28
2022-07-30T21:46:12.962Z,4.28
2022-07-30T21:48:43.239Z,11.18
2022-07-30T21:51:12.247Z,8.18
2022-07-30T21:53:45.066Z,13.98
2022-07-30T21:56:15.085Z,8.18
2022-07-30T21:58:44.147Z,6.72
2022-07-30T22:01:18.069Z,6.20
2022-07-30T22:04:03.246Z,9.32
2022-07-30T22:06:36.632Z,9.40
2022-07-30T22:11:54.162Z,3.28
2022-07-30T22:14:21.637Z,6.75
2022-07-30T22:16:49.158Z,3.85
2022-07-30T22:19:17.289Z,8.32
2022-07-30T22:21:46.651Z,9.13
2022-07-30T22:24:28.955Z,10.60
2022-07-30T22:27:01.760Z,9.05
2022-07-30T22:29:43.061Z,11.60
2022-07-30T22:32:12.350Z,8.00
2022-07-30T22:34:39.870Z,5.68
2022-07-30T22:37:12.631Z,14.38
2022-07-30T22:39:50.935Z,5.30
2022-07-30T22:42:24.556Z,7.93
2022-07-30T22:44:55.471Z,10.38
2022-07-30T22:47:50.794Z,11.23
2022-07-30T22:50:11.632Z,5.85
2022-07-30T22:52:52.384Z,7.32
2022-07-30T22:55:26.593Z,6.45
2022-07-30T22:57:54.414Z,12.32
2022-07-30T23:00:27.342Z,5.65
2022-07-30T23:02:56.896Z,8.95
2022-07-30T23:05:24.591Z,5.63
2022-07-30T23:07:52.252Z,12.65
2022-07-30T23:10:21.036Z,7.05
2022-07-30T23:12:15.293Z,8.48
2022-07-30T23:12:52.009Z,12.65
2022-07-30T23:15:20.449Z,8.18
2022-07-30T23:17:48.059Z,4.93
2022-07-30T23:20:20.487Z,8.05
2022-07-30T23:22:49.066Z,6.88
2022-07-30T23:25:17.103Z,13.13
2022-07-30T23:27:46.787Z,9.13
2022-07-30T23:30:14.921Z,9.40
2022-07-30T23:32:42.416Z,8.60
2022-07-30T23:35:10.255Z,15.23
2022-07-30T23:37:48.217Z,13.88
2022-07-30T23:40:18.690Z,9.55
2022-07-30T23:42:50.104Z,16.80
2022-07-30T23:48:02.139Z,12.90
2022-07-30T23:50:32.040Z,14.13
2022-07-30T23:53:00.734Z,11.32
2022-07-30T23:55:29.528Z,9.85
2022-07-30T23:57:58.053Z,16.42
